createdAt,value
2023-01-06T00:00:16.614Z,96464.81
2023-01-06T00:02:20.783Z,96510.69
2023-01-06T00:04:23.709Z,96509.06
2023-01-06T00:06:28.466Z,96499.41
2023-01-06T00:08:31.783Z,96500.28
2023-01-06T00:10:34.513Z,96502.16
2023-01-06T00:12:37.618Z,96503.66
2023-01-06T00:14:42.553Z,96516.31
2023-01-06T00:16:45.427Z,96510.50
2023-01-06T00:18:49.865Z,96459.78
2023-01-06T00:20:52.581Z,96502.91
2023-01-06T00:22:55.330Z,96502.25
2023-01-06T00:24:58.079Z,96499.91
2023-01-06T00:27:01.191Z,96496.78
2023-01-06T00:29:04.030Z,96502.16
2023-01-06T00:31:08.128Z,96489.78
2023-01-06T00:33:10.981Z,96489.19
2023-01-06T00:35:15.254Z,96485.63
2023-01-06T00:37:18.905Z,96431.06
2023-01-06T00:39:21.822Z,96485.97
2023-01-06T00:41:42.067Z,96490.53
2023-01-06T00:43:44.798Z,96486.44
2023-01-06T00:45:47.547Z,96486.06
2023-01-06T00:47:51.188Z,96482.34
2023-01-06T00:49:53.945Z,96478.63
2023-01-06T00:51:59.292Z,96465.41
2023-01-06T00:54:02.841Z,96470.34
2023-01-06T00:56:06.258Z,96472.81
2023-01-06T00:58:08.971Z,96469.69
2023-01-06T01:00:14.830Z,96465.91
2023-01-06T01:02:17.839Z,96398.03
2023-01-06T01:04:21.331Z,96468.38
2023-01-06T01:06:24.375Z,96471.44
2023-01-06T01:08:28.672Z,96468.91
2023-01-06T01:10:31.380Z,96468.00
2023-01-06T01:12:33.241Z,96470.31
2023-01-06T01:14:36.430Z,96467.34
2023-01-06T01:16:39.468Z,96450.34
2023-01-06T01:18:42.196Z,96476.50
2023-01-06T01:20:46.753Z,96387.91
2023-01-06T01:22:50.314Z,96429.19
2023-01-06T01:24:54.480Z,96465.22
2023-01-06T01:26:57.359Z,96469.19
2023-01-06T01:29:01.267Z,96441.88
2023-01-06T01:31:04.863Z,96439.06
2023-01-06T01:33:07.630Z,96459.09
2023-01-06T01:35:11.054Z,96456.63
2023-01-06T01:37:16.131Z,96434.19
2023-01-06T01:39:20.627Z,96457.81
2023-01-06T01:41:25.944Z,96463.84
2023-01-06T01:43:44.325Z,96458.25
2023-01-06T01:45:51.331Z,96456.44
2023-01-06T01:47:58.538Z,96443.69
2023-01-06T01:50:09.095Z,96441.81
2023-01-06T01:52:12.977Z,96449.91
2023-01-06T01:54:19.494Z,96450.41
2023-01-06T01:56:27.461Z,96460.00
2023-01-06T01:58:37.380Z,96437.75
2023-01-06T02:00:42.222Z,96454.72
2023-01-06T02:02:45.188Z,96439.81
2023-01-06T02:04:55.354Z,96457.50
2023-01-06T02:06:59.012Z,96464.72
2023-01-06T02:09:06.223Z,96459.72
2023-01-06T02:11:10.285Z,96461.41
2023-01-06T02:13:14.421Z,96462.72
2023-01-06T02:15:19.484Z,96466.31
2023-01-06T02:17:55.514Z,96446.81
2023-01-06T02:20:28.424Z,96392.59
2023-01-06T02:22:56.725Z,96428.56
2023-01-06T02:25:33.900Z,96443.25
2023-01-06T02:27:56.159Z,96436.63
2023-01-06T02:30:39.917Z,96427.19
2023-01-06T02:32:57.381Z,96437.91
2023-01-06T02:35:15.162Z,96442.00
2023-01-06T02:37:29.138Z,96436.72
2023-01-06T02:39:44.005Z,96419.63
2023-01-06T02:41:57.084Z,96425.41
2023-01-06T02:44:05.743Z,96367.28
2023-01-06T02:46:13.778Z,96406.94
2023-01-06T02:48:28.629Z,96423.09
2023-01-06T02:50:41.850Z,96413.34
2023-01-06T02:52:52.030Z,96396.72
2023-01-06T02:55:00.161Z,96422.56
2023-01-06T02:57:13.489Z,96421.75
2023-01-06T02:59:23.949Z,96399.59
2023-01-06T03:01:32.640Z,96421.97
2023-01-06T03:03:40.699Z,96418.41
2023-01-06T03:05:48.620Z,96421.84
2023-01-06T03:07:53.216Z,96411.94
2023-01-06T03:09:57.609Z,96423.09
2023-01-06T03:12:03.584Z,96423.63
2023-01-06T03:14:13.762Z,96414.63
2023-01-06T03:16:17.416Z,96395.03
2023-01-06T03:18:21.257Z,96410.97
2023-01-06T03:20:26.411Z,96412.63
2023-01-06T03:22:29.739Z,96407.91
2023-01-06T03:24:33.222Z,96408.94
2023-01-06T03:26:37.450Z,96413.09
2023-01-06T03:28:40.775Z,96418.97
2023-01-06T03:30:50.199Z,96416.94
2023-01-06T03:33:01.348Z,96426.00
2023-01-06T03:35:16.695Z,96424.16
2023-01-06T03:37:27.899Z,96432.84
2023-01-06T03:39:37.833Z,96425.63
2023-01-06T03:42:02.506Z,96419.84
2023-01-06T03:44:12.693Z,96422.75
2023-01-06T03:46:26.218Z,96424.88
2023-01-06T03:48:41.851Z,96426.59
2023-01-06T03:50:51.774Z,96432.41
2023-01-06T03:53:04.208Z,96428.72
2023-01-06T03:55:12.694Z,96428.28
2023-01-06T03:57:19.692Z,96404.31
2023-01-06T03:59:28.737Z,96390.19
2023-01-06T04:01:33.797Z,96416.69
2023-01-06T04:03:38.142Z,96398.63
2023-01-06T04:05:41.199Z,96416.25
2023-01-06T04:07:45.567Z,96339.16
2023-01-06T04:09:51.289Z,96417.09
2023-01-06T04:12:11.964Z,96419.09
2023-01-06T04:14:15.724Z,96411.66
2023-01-06T04:16:18.803Z,96416.78
2023-01-06T04:18:21.898Z,96415.53
2023-01-06T04:20:26.545Z,96416.13
2023-01-06T04:22:35.768Z,96407.06
2023-01-06T04:24:39.493Z,96413.03
2023-01-06T04:26:44.468Z,96415.09
2023-01-06T04:28:48.134Z,96412.03
2023-01-06T04:30:50.939Z,96411.81
2023-01-06T04:32:53.919Z,96414.88
2023-01-06T04:34:56.711Z,96411.16
2023-01-06T04:36:59.703Z,96402.09
2023-01-06T04:39:02.464Z,96401.72
2023-01-06T04:41:05.618Z,96377.56
2023-01-06T04:43:14.160Z,96397.94
2023-01-06T04:45:17.138Z,96403.28
2023-01-06T04:47:19.883Z,96379.94
2023-01-06T04:49:22.649Z,96390.94
2023-01-06T04:51:25.464Z,96398.31
2023-01-06T04:53:28.265Z,96394.16
2023-01-06T04:55:31.339Z,96379.50
2023-01-06T04:57:34.125Z,96393.72
2023-01-06T04:59:38.197Z,96391.84
2023-01-06T05:01:41.101Z,96397.50
2023-01-06T05:03:44.020Z,96395.78
2023-01-06T05:05:46.813Z,96368.22
2023-01-06T05:07:49.560Z,96373.78
2023-01-06T05:09:52.327Z,96400.31
2023-01-06T05:11:55.106Z,96395.03
2023-01-06T05:13:57.942Z,96386.50
2023-01-06T05:16:02.363Z,96382.72
2023-01-06T05:18:05.476Z,96392.44
2023-01-06T05:20:09.014Z,96384.41
2023-01-06T05:22:12.358Z,96375.56
2023-01-06T05:24:15.323Z,96381.50
2023-01-06T05:26:19.831Z,96326.28
2023-01-06T05:28:22.833Z,96380.47
2023-01-06T05:30:25.586Z,96391.78
2023-01-06T05:32:29.786Z,96381.22
2023-01-06T05:34:32.545Z,96385.53
2023-01-06T05:36:35.329Z,96272.72
2023-01-06T05:38:38.195Z,96377.34
2023-01-06T05:40:40.965Z,96379.22
2023-01-06T05:42:43.689Z,96388.44
2023-01-06T05:44:46.479Z,96292.94
2023-01-06T05:46:49.227Z,96385.16
2023-01-06T05:48:53.382Z,96380.03
2023-01-06T05:51:02.496Z,96384.41
2023-01-06T05:53:05.337Z,96377.22
2023-01-06T05:55:09.333Z,96372.91
2023-01-06T05:57:12.108Z,96368.44
2023-01-06T05:59:14.898Z,96364.13
2023-01-06T06:01:19.192Z,96376.09
2023-01-06T06:03:22.011Z,96369.69
2023-01-06T06:05:26.134Z,96362.94
2023-01-06T06:07:28.862Z,96360.84
2023-01-06T06:09:31.884Z,96372.16
2023-01-06T06:11:34.655Z,96363.09
2023-01-06T06:13:37.757Z,96366.78
2023-01-06T06:15:40.533Z,96370.06
2023-01-06T06:17:43.261Z,96372.91
2023-01-06T06:19:46.036Z,96367.41
2023-01-06T06:21:50.195Z,96376.84
2023-01-06T06:23:53.815Z,96390.44
2023-01-06T06:25:56.671Z,96378.47
2023-01-06T06:28:00.005Z,96385.22
2023-01-06T06:30:02.745Z,96385.22
2023-01-06T06:32:05.683Z,96387.69
2023-01-06T06:34:08.439Z,96383.75
2023-01-06T06:36:15.660Z,96386.56
2023-01-06T06:38:19.838Z,96381.81
2023-01-06T06:40:23.840Z,96391.25
2023-01-06T06:42:26.587Z,96396.50
2023-01-06T06:44:30.346Z,96394.31
2023-01-06T06:46:33.286Z,96390.00
2023-01-06T06:48:36.863Z,96399.31
2023-01-06T06:50:39.835Z,96388.56
2023-01-06T06:52:42.610Z,96392.69
2023-01-06T06:54:46.763Z,96403.53
2023-01-06T06:56:49.530Z,96398.91
2023-01-06T06:58:52.309Z,96389.94
2023-01-06T07:00:55.065Z,96308.25
2023-01-06T07:02:57.811Z,96296.72
2023-01-06T07:05:00.525Z,96410.34
2023-01-06T07:07:03.307Z,96409.63
2023-01-06T07:09:06.911Z,96416.88
2023-01-06T07:11:11.193Z,96421.28
2023-01-06T07:13:14.133Z,96425.25
2023-01-06T07:15:16.886Z,96402.22
2023-01-06T07:17:19.617Z,96412.31
2023-01-06T07:19:22.374Z,96420.06
2023-01-06T07:21:25.093Z,96417.66
2023-01-06T07:23:27.989Z,96420.78
2023-01-06T07:25:31.276Z,96399.09
2023-01-06T07:27:35.698Z,96430.19
2023-01-06T07:29:38.403Z,96427.06
2023-01-06T07:31:41.113Z,96431.81
2023-01-06T07:33:44.065Z,96423.91
2023-01-06T07:35:47.312Z,96422.44
2023-01-06T07:37:50.834Z,96408.31
2023-01-06T07:39:53.530Z,96426.22
2023-01-06T07:41:56.531Z,96425.38
2023-01-06T07:44:00.793Z,96388.22
2023-01-06T07:46:03.562Z,96435.06
2023-01-06T07:48:06.789Z,96431.56
2023-01-06T07:50:09.674Z,96328.53
2023-01-06T07:52:12.494Z,96445.91
2023-01-06T07:54:15.235Z,96434.78
2023-01-06T07:56:17.934Z,96429.41
2023-01-06T07:58:21.065Z,96436.09
2023-01-06T08:00:25.285Z,96442.63
2023-01-06T08:02:28.191Z,96422.22
2023-01-06T08:04:30.944Z,96397.28
2023-01-06T08:06:33.671Z,96436.41
2023-01-06T08:08:37.633Z,96450.09
2023-01-06T08:10:41.167Z,96452.53
2023-01-06T08:12:43.862Z,96451.94
2023-01-06T08:14:46.622Z,96455.44
2023-01-06T08:16:50.670Z,96459.16
2023-01-06T08:18:53.407Z,96465.41
2023-01-06T08:21:00.965Z,96456.75
2023-01-06T08:23:03.856Z,96463.97
2023-01-06T08:25:07.356Z,96465.72
2023-01-06T08:27:10.287Z,96463.34
2023-01-06T08:29:13.024Z,96457.09
2023-01-06T08:31:17.362Z,96453.00
2023-01-06T08:33:24.098Z,96458.72
2023-01-06T08:35:27.017Z,96456.78
2023-01-06T08:37:29.957Z,96444.72
2023-01-06T08:39:32.786Z,96455.94
2023-01-06T08:41:35.832Z,96437.97
2023-01-06T08:43:44.691Z,96464.72
2023-01-06T08:45:47.651Z,96437.97
2023-01-06T08:47:50.381Z,96471.81
2023-01-06T08:49:54.471Z,96475.66
2023-01-06T08:51:57.213Z,96469.25
2023-01-06T08:53:59.906Z,96473.34
2023-01-06T08:56:02.643Z,96480.25
2023-01-06T08:58:05.524Z,96475.94
2023-01-06T09:00:09.769Z,96472.81
2023-01-06T09:02:12.738Z,96470.25
2023-01-06T09:04:15.650Z,96481.81
2023-01-06T09:06:20.286Z,96475.81
2023-01-06T09:08:23.132Z,96488.72
2023-01-06T09:10:26.362Z,96489.88
2023-01-06T09:12:29.200Z,96492.22
2023-01-06T09:14:31.952Z,96441.75
2023-01-06T09:16:34.730Z,96510.38
2023-01-06T09:18:38.172Z,96510.16
2023-01-06T09:20:40.961Z,96388.50
2023-01-06T09:22:46.159Z,96505.66
2023-01-06T09:24:48.942Z,96495.06
2023-01-06T09:26:51.776Z,96518.06
2023-01-06T09:28:54.634Z,96516.09
2023-01-06T09:30:57.461Z,96525.09
2023-01-06T09:33:00.244Z,96521.50
2023-01-06T09:35:02.972Z,96522.75
2023-01-06T09:37:06.061Z,96519.38
2023-01-06T09:39:10.461Z,96506.44
2023-01-06T09:41:41.703Z,96525.50
2023-01-06T09:43:52.080Z,96526.66
2023-01-06T09:46:01.056Z,96524.94
2023-01-06T09:48:06.960Z,96503.53
2023-01-06T09:50:16.047Z,96530.28
2023-01-06T09:52:30.491Z,96535.78
2023-01-06T09:54:40.317Z,96492.91
2023-01-06T09:56:44.783Z,96464.22
2023-01-06T09:58:52.507Z,96526.44
2023-01-06T10:00:57.269Z,96521.41
2023-01-06T10:03:00.055Z,96519.31
2023-01-06T10:05:03.055Z,96523.63
2023-01-06T10:07:14.922Z,96466.78
2023-01-06T10:09:27.405Z,96513.28
2023-01-06T10:11:47.189Z,96518.53
2023-01-06T10:14:03.797Z,96352.13
2023-01-06T10:16:14.122Z,96506.56
2023-01-06T10:18:29.747Z,96505.19
2023-01-06T10:20:55.847Z,96498.31
2023-01-06T10:23:08.683Z,96446.03
2023-01-06T10:25:19.577Z,96490.03
2023-01-06T10:27:28.099Z,96506.38
2023-01-06T10:29:33.718Z,96487.13
2023-01-06T10:31:40.827Z,96480.53
2023-01-06T10:33:48.351Z,96463.91
2023-01-06T10:35:51.973Z,96468.34
2023-01-06T10:37:57.645Z,96461.41
2023-01-06T10:40:05.025Z,96462.06
2023-01-06T10:42:36.919Z,96447.47
2023-01-06T10:44:41.073Z,96449.25
2023-01-06T10:46:45.227Z,96454.06
2023-01-06T10:48:50.325Z,96444.59
2023-01-06T10:50:56.927Z,96454.00
2023-01-06T10:53:00.718Z,96442.38
2023-01-06T10:55:06.336Z,96417.47
2023-01-06T10:57:17.574Z,96433.25
2023-01-06T10:59:20.691Z,96437.09
2023-01-06T11:01:26.654Z,96428.06
2023-01-06T11:03:34.442Z,96418.41
2023-01-06T11:05:37.576Z,96419.31
2023-01-06T11:07:48.007Z,96401.38
2023-01-06T11:09:51.354Z,96415.88
2023-01-06T11:11:56.200Z,96418.41
2023-01-06T11:14:03.442Z,96401.84
2023-01-06T11:16:18.326Z,96429.41
2023-01-06T11:18:25.948Z,96415.97
2023-01-06T11:20:32.594Z,96421.78
2023-01-06T11:22:38.507Z,96411.97
2023-01-06T11:24:52.767Z,96384.03
2023-01-06T11:26:57.718Z,96408.34
2023-01-06T11:29:19.364Z,96419.72
2023-01-06T11:31:25.848Z,96430.00
2023-01-06T11:33:32.744Z,96424.97
2023-01-06T11:35:35.534Z,96421.53
2023-01-06T11:37:40.780Z,96416.56
2023-01-06T11:39:45.205Z,96428.38
2023-01-06T11:41:52.425Z,96431.47
2023-01-06T11:43:58.740Z,96427.06
2023-01-06T11:46:05.412Z,96424.78
2023-01-06T11:48:14.511Z,96389.03
2023-01-06T11:50:21.377Z,96420.69
2023-01-06T11:52:27.098Z,96426.09
2023-01-06T11:54:35.830Z,96415.47
2023-01-06T11:56:38.601Z,96408.69
2023-01-06T11:58:50.852Z,96420.13
2023-01-06T12:00:58.306Z,96408.78
2023-01-06T12:03:08.214Z,96401.28
2023-01-06T12:05:22.558Z,96407.34
2023-01-06T12:07:33.156Z,96332.38
2023-01-06T12:09:39.856Z,96407.44
2023-01-06T12:11:47.080Z,96405.41
2023-01-06T12:14:08.882Z,96369.13
2023-01-06T12:16:17.433Z,96346.06
2023-01-06T12:18:26.307Z,96395.41
2023-01-06T12:20:33.687Z,96400.31
2023-01-06T12:22:41.186Z,96391.19
2023-01-06T12:24:44.259Z,96390.59
2023-01-06T12:26:48.085Z,96384.66
2023-01-06T12:28:54.199Z,96347.41
2023-01-06T12:31:06.415Z,96390.88
2023-01-06T12:33:15.896Z,96377.09
2023-01-06T12:35:25.162Z,96377.38
2023-01-06T12:37:33.902Z,96377.97
2023-01-06T12:39:45.910Z,96371.63
2023-01-06T12:41:53.482Z,96374.88
2023-01-06T12:44:01.025Z,96376.34
2023-01-06T12:46:10.624Z,96321.16
2023-01-06T12:48:19.653Z,96370.72
2023-01-06T12:50:31.755Z,96363.63
2023-01-06T12:52:43.643Z,96370.41
2023-01-06T12:54:53.499Z,96363.72
2023-01-06T12:57:22.007Z,96363.47
2023-01-06T12:59:34.408Z,96367.56
2023-01-06T13:01:44.072Z,96286.50
2023-01-06T13:04:12.700Z,96351.81
2023-01-06T13:06:27.052Z,96363.81
2023-01-06T13:08:48.688Z,96359.88
2023-01-06T13:11:00.373Z,96365.66
2023-01-06T13:13:24.579Z,96361.16
2023-01-06T13:15:30.156Z,96364.44
2023-01-06T13:17:37.697Z,96372.50
2023-01-06T13:19:51.172Z,96364.91
2023-01-06T13:21:56.933Z,96366.88
2023-01-06T13:24:18.035Z,96362.56
2023-01-06T13:26:49.629Z,96365.56
2023-01-06T13:29:04.001Z,96374.50
2023-01-06T13:31:32.950Z,96368.75
2023-01-06T13:33:53.659Z,96371.09
2023-01-06T13:36:10.973Z,96371.09
2023-01-06T13:38:37.771Z,96364.56
2023-01-06T13:40:44.567Z,96278.72
2023-01-06T13:42:53.898Z,96382.44
2023-01-06T13:44:56.785Z,96377.44
2023-01-06T13:47:04.003Z,96382.00
2023-01-06T13:49:08.321Z,96395.44
2023-01-06T13:51:14.547Z,96386.81
2023-01-06T13:53:19.863Z,96372.88
2023-01-06T13:55:26.975Z,96369.81
2023-01-06T13:57:34.253Z,96366.72
2023-01-06T13:59:49.554Z,96288.50
2023-01-06T14:01:53.333Z,96375.81
2023-01-06T14:04:36.592Z,96377.31
2023-01-06T14:06:47.554Z,96381.81
2023-01-06T14:08:53.642Z,96357.72
2023-01-06T14:11:20.260Z,96382.97
2023-01-06T14:13:26.870Z,96385.94
2023-01-06T14:15:32.191Z,96380.09
2023-01-06T14:17:42.672Z,96351.31
2023-01-06T14:19:54.270Z,96380.84
2023-01-06T14:22:15.481Z,96386.59
2023-01-06T14:24:27.699Z,96365.94
2023-01-06T14:26:52.236Z,96385.66
2023-01-06T14:28:56.475Z,96382.59
2023-01-06T14:31:39.368Z,96379.81
2023-01-06T14:33:44.720Z,96312.44
2023-01-06T14:35:48.484Z,96386.00
2023-01-06T14:37:56.324Z,96395.34
2023-01-06T14:40:01.888Z,96388.84
2023-01-06T14:42:09.307Z,96394.28
2023-01-06T14:44:16.639Z,96392.88
2023-01-06T14:46:23.037Z,96332.88
2023-01-06T14:48:28.595Z,96402.81
2023-01-06T14:50:46.167Z,96392.28
2023-01-06T14:52:54.813Z,96386.88
2023-01-06T14:54:57.796Z,96396.31
2023-01-06T14:57:03.486Z,96401.91
2023-01-06T14:59:15.535Z,96378.59
2023-01-06T15:01:24.635Z,96397.13
2023-01-06T15:03:29.133Z,96405.19
2023-01-06T15:05:34.089Z,96395.63
2023-01-06T15:07:36.816Z,96404.00
2023-01-06T15:09:39.555Z,96404.09
2023-01-06T15:11:43.621Z,96408.19
2023-01-06T15:13:46.311Z,96402.22
2023-01-06T15:15:55.313Z,96414.66
2023-01-06T15:18:00.766Z,96405.88
2023-01-06T15:20:03.765Z,96388.28
2023-01-06T15:22:09.352Z,96408.34
2023-01-06T15:24:19.804Z,96400.28
2023-01-06T15:26:25.991Z,96405.06
2023-01-06T15:28:30.677Z,96412.75
2023-01-06T15:30:36.626Z,96411.72
2023-01-06T15:32:41.324Z,96406.06
2023-01-06T15:34:47.246Z,96391.50
2023-01-06T15:36:53.402Z,96415.63
2023-01-06T15:39:01.192Z,96370.88
2023-01-06T15:41:26.662Z,96398.06
2023-01-06T15:43:30.105Z,96416.84
2023-01-06T15:45:33.783Z,96411.22
2023-01-06T15:47:42.089Z,96413.44
2023-01-06T15:49:53.483Z,96419.41
2023-01-06T15:51:59.889Z,96420.34
2023-01-06T15:54:02.757Z,96413.44
2023-01-06T15:56:06.207Z,96416.47
2023-01-06T15:58:15.620Z,96419.09
2023-01-06T16:00:22.261Z,96409.88
2023-01-06T16:02:29.558Z,96421.06
2023-01-06T16:04:32.382Z,96411.72
2023-01-06T16:06:38.600Z,96364.72
2023-01-06T16:08:42.603Z,96425.97
2023-01-06T16:10:46.246Z,96430.28
2023-01-06T16:13:05.022Z,96393.53
2023-01-06T16:15:35.299Z,96385.84
2023-01-06T16:17:47.307Z,96443.59
2023-01-06T16:19:52.186Z,96267.94
2023-01-06T16:21:57.418Z,96429.94
2023-01-06T16:24:02.593Z,96431.22
2023-01-06T16:26:08.662Z,96429.13
2023-01-06T16:28:21.560Z,96437.75
2023-01-06T16:30:26.883Z,96375.56
2023-01-06T16:32:34.622Z,96368.34
2023-01-06T16:34:37.411Z,96435.28
2023-01-06T16:36:40.138Z,96439.94
2023-01-06T16:38:44.614Z,96437.59
2023-01-06T16:40:47.722Z,96434.44
2023-01-06T16:42:51.055Z,96434.19
2023-01-06T16:45:01.940Z,96427.56
2023-01-06T16:47:10.178Z,96356.31
2023-01-06T16:49:13.595Z,96416.25
2023-01-06T16:51:18.902Z,96435.03
2023-01-06T16:53:23.500Z,96435.03
2023-01-06T16:55:27.795Z,96435.88
2023-01-06T16:57:30.503Z,96429.44
2023-01-06T16:59:36.608Z,96440.41
2023-01-06T17:01:39.446Z,96423.47
2023-01-06T17:03:42.919Z,96430.94
2023-01-06T17:05:45.854Z,96428.00
2023-01-06T17:07:48.863Z,96430.34
2023-01-06T17:09:51.686Z,96409.13
2023-01-06T17:11:55.771Z,96433.03
2023-01-06T17:14:00.903Z,96440.28
2023-01-06T17:16:13.984Z,96439.69
2023-01-06T17:18:25.507Z,96416.97
2023-01-06T17:20:28.868Z,96435.03
2023-01-06T17:22:32.558Z,96438.78
2023-01-06T17:24:36.362Z,96435.97
2023-01-06T17:26:39.772Z,96437.03
2023-01-06T17:28:45.096Z,96437.38
2023-01-06T17:30:49.069Z,96433.78
2023-01-06T17:32:51.828Z,96438.69
2023-01-06T17:34:55.875Z,96439.84
2023-01-06T17:37:03.386Z,96435.72
2023-01-06T17:39:14.789Z,96434.44
2023-01-06T17:41:18.365Z,96438.00
2023-01-06T17:43:28.397Z,96440.56
2023-01-06T17:45:32.537Z,96438.81
2023-01-06T17:47:45.579Z,96444.03
2023-01-06T17:49:51.267Z,96436.91
2023-01-06T17:51:54.933Z,96430.31
2023-01-06T17:54:15.412Z,96433.81
2023-01-06T17:56:18.871Z,96434.19
2023-01-06T17:58:29.544Z,96427.63
2023-01-06T18:00:35.995Z,96442.00
2023-01-06T18:02:43.002Z,96433.63
2023-01-06T18:04:47.295Z,96438.66
2023-01-06T18:06:52.809Z,96438.09
2023-01-06T18:09:03.021Z,96440.53
2023-01-06T18:11:26.009Z,96419.66
2023-01-06T18:13:35.547Z,96432.25
2023-01-06T18:15:39.799Z,96442.06
2023-01-06T18:17:42.553Z,96447.88
2023-01-06T18:19:45.275Z,96439.84
2023-01-06T18:21:49.765Z,96438.78
2023-01-06T18:23:53.532Z,96440.19
2023-01-06T18:25:58.064Z,96372.03
2023-01-06T18:28:01.540Z,96450.91
2023-01-06T18:30:18.108Z,96408.53
2023-01-06T18:32:27.849Z,96463.50
2023-01-06T18:34:40.234Z,96467.25
2023-01-06T18:36:45.585Z,96474.13
2023-01-06T18:38:48.349Z,96458.63
2023-01-06T18:40:51.125Z,96462.94
2023-01-06T18:42:55.350Z,96461.53
2023-01-06T18:45:18.230Z,96461.28
2023-01-06T18:47:25.554Z,96469.94
2023-01-06T18:49:34.044Z,96442.50
2023-01-06T18:51:36.780Z,96454.66
2023-01-06T18:53:43.768Z,96454.16
2023-01-06T18:55:50.781Z,96458.72
2023-01-06T18:57:59.589Z,96461.16
2023-01-06T19:00:13.268Z,96463.38
2023-01-06T19:02:30.838Z,96419.00
2023-01-06T19:04:37.765Z,96412.78
2023-01-06T19:06:42.848Z,96445.88
2023-01-06T19:08:48.513Z,96457.31
2023-01-06T19:10:51.225Z,96434.44
2023-01-06T19:12:57.893Z,96453.22
2023-01-06T19:15:09.853Z,96455.69
2023-01-06T19:17:22.578Z,96403.50
2023-01-06T19:19:36.883Z,96427.44
2023-01-06T19:21:39.987Z,96386.94
2023-01-06T19:23:42.745Z,96353.44
2023-01-06T19:25:48.498Z,96445.75
2023-01-06T19:27:53.237Z,96366.97
2023-01-06T19:29:57.702Z,96438.78
2023-01-06T19:32:03.950Z,96443.66
2023-01-06T19:34:13.861Z,96348.28
2023-01-06T19:36:46.933Z,96447.03
2023-01-06T19:38:49.845Z,96442.59
2023-01-06T19:40:53.583Z,96445.88
2023-01-06T19:43:00.297Z,96445.06
2023-01-06T19:45:20.008Z,96446.34
2023-01-06T19:47:25.268Z,96373.72
2023-01-06T19:49:39.615Z,96450.22
2023-01-06T19:51:43.728Z,96438.94
2023-01-06T19:53:49.331Z,96445.25
2023-01-06T19:55:52.183Z,96446.41
2023-01-06T19:57:56.816Z,96441.03
2023-01-06T20:00:02.611Z,96441.91
2023-01-06T20:02:28.081Z,96447.31
2023-01-06T20:04:31.108Z,96417.03
2023-01-06T20:06:33.738Z,96460.34
2023-01-06T20:08:37.747Z,96454.72
2023-01-06T20:10:40.450Z,96450.34
2023-01-06T20:12:44.545Z,96449.13
2023-01-06T20:14:47.183Z,96458.63
2023-01-06T20:16:50.644Z,96462.53
2023-01-06T20:18:53.387Z,96443.19
2023-01-06T20:20:56.060Z,96460.16
2023-01-06T20:22:58.806Z,96451.91
2023-01-06T20:25:02.909Z,96460.06
2023-01-06T20:27:06.029Z,96462.06
2023-01-06T20:29:09.255Z,96454.84
2023-01-06T20:31:12.040Z,96450.06
2023-01-06T20:33:14.818Z,96452.50
2023-01-06T20:35:17.647Z,96451.69
2023-01-06T20:37:20.403Z,96459.16
2023-01-06T20:39:23.543Z,96455.75
2023-01-06T20:41:27.603Z,96453.78
2023-01-06T20:43:30.305Z,96456.81
2023-01-06T20:45:33.095Z,96456.59
2023-01-06T20:47:35.823Z,96403.94
2023-01-06T20:49:38.857Z,96413.34
2023-01-06T20:51:41.691Z,96446.53
2023-01-06T20:53:44.417Z,96450.97
2023-01-06T20:55:47.119Z,96413.38
2023-01-06T20:57:51.230Z,96440.25
2023-01-06T20:59:53.952Z,96444.09
2023-01-06T21:01:56.837Z,96432.56
2023-01-06T21:03:59.828Z,96430.00
2023-01-06T21:06:02.555Z,96440.97
2023-01-06T21:08:05.488Z,96433.97
2023-01-06T21:10:09.032Z,96416.22
2023-01-06T21:12:11.874Z,96416.72
2023-01-06T21:14:15.986Z,96423.72
2023-01-06T21:16:19.199Z,96295.31
2023-01-06T21:18:22.007Z,96420.53
2023-01-06T21:20:24.781Z,96402.22
2023-01-06T21:22:27.520Z,96381.34
2023-01-06T21:24:30.313Z,96430.56
2023-01-06T21:26:33.141Z,96425.72
2023-01-06T21:28:35.929Z,96367.19
2023-01-06T21:30:40.183Z,96419.88
2023-01-06T21:32:42.946Z,96390.06
2023-01-06T21:34:45.690Z,96420.84
2023-01-06T21:36:48.425Z,96403.63
2023-01-06T21:38:51.262Z,96422.06
2023-01-06T21:40:54.627Z,96394.41
2023-01-06T21:43:08.422Z,96429.69
2023-01-06T21:45:11.977Z,96418.38
2023-01-06T21:47:16.361Z,96421.03
2023-01-06T21:49:19.135Z,96379.88
2023-01-06T21:51:22.299Z,96417.56
2023-01-06T21:53:26.885Z,96415.56
2023-01-06T21:55:29.940Z,96400.09
2023-01-06T21:57:32.710Z,96416.03
2023-01-06T21:59:35.585Z,96373.16
2023-01-06T22:01:38.476Z,96424.88
2023-01-06T22:03:42.624Z,96412.91
2023-01-06T22:05:45.702Z,96389.19
2023-01-06T22:07:52.927Z,96395.41
2023-01-06T22:09:56.546Z,96408.84
2023-01-06T22:12:01.161Z,96392.09
2023-01-06T22:14:05.364Z,96413.84
2023-01-06T22:16:09.892Z,96412.09
2023-01-06T22:18:12.775Z,96406.66
2023-01-06T22:20:17.882Z,96381.41
2023-01-06T22:22:22.112Z,96416.44
2023-01-06T22:24:25.428Z,96412.72
2023-01-06T22:26:28.177Z,96386.00
2023-01-06T22:28:30.934Z,96415.19
2023-01-06T22:30:33.807Z,96404.56
2023-01-06T22:32:43.323Z,96411.22
2023-01-06T22:34:46.092Z,96412.03
2023-01-06T22:36:50.219Z,96419.94
2023-01-06T22:38:53.311Z,96412.13
2023-01-06T22:40:56.054Z,96329.03
2023-01-06T22:42:58.861Z,96408.19
2023-01-06T22:45:01.604Z,96321.81
2023-01-06T22:47:04.606Z,96415.31
2023-01-06T22:49:07.675Z,96324.19
2023-01-06T22:51:10.555Z,96405.63
2023-01-06T22:53:14.705Z,96407.25
2023-01-06T22:55:17.677Z,96393.59
2023-01-06T22:57:20.583Z,96394.06
2023-01-06T22:59:23.320Z,96408.91
2023-01-06T23:01:26.115Z,96396.31
2023-01-06T23:03:29.113Z,96400.63
2023-01-06T23:05:31.877Z,96343.44
2023-01-06T23:07:38.707Z,96396.53
2023-01-06T23:09:42.797Z,96373.31
2023-01-06T23:11:45.616Z,96383.81
2023-01-06T23:13:48.915Z,96393.25
2023-01-06T23:16:00.024Z,96395.38
2023-01-06T23:18:02.892Z,96349.63
2023-01-06T23:20:06.916Z,96380.56
2023-01-06T23:22:09.866Z,96203.22
2023-01-06T23:24:13.775Z,96376.69
2023-01-06T23:26:19.785Z,96391.72
2023-01-06T23:28:22.517Z,96386.47
2023-01-06T23:30:25.267Z,96375.03
2023-01-06T23:32:28.111Z,96385.19
2023-01-06T23:34:31.199Z,96381.56
2023-01-06T23:36:34.628Z,96384.09
2023-01-06T23:38:37.903Z,96375.97
2023-01-06T23:40:40.613Z,96377.72
2023-01-06T23:42:48.756Z,96372.59
2023-01-06T23:44:51.798Z,96372.25
2023-01-06T23:46:54.529Z,96372.84
2023-01-06T23:48:58.126Z,96251.94
2023-01-06T23:51:01.854Z,96382.41
2023-01-06T23:53:04.575Z,96380.31
2023-01-06T23:55:08.025Z,96382.97
2023-01-06T23:57:10.737Z,96351.63
2023-01-06T23:59:14.964Z,96367.47
